sensor_id;sensor_type;location;lat;lon;timestamp;pressure;altitude;pressure_sealevel;temperature;humidity
27334;BME280;14817;57.104;-2.094;2022-12-29T00:00:08;96439.06;;;6.22;100.00
27334;BME280;14817;57.104;-2.094;2022-12-29T00:02:39;96436.19;;;6.24;100.00
27334;BME280;14817;57.104;-2.094;2022-12-29T00:05:07;96431.09;;;6.22;100.00
27334;BME280;14817;57.104;-2.094;2022-12-29T00:07:34;96427.06;;;6.20;100.00
27334;BME280;14817;57.104;-2.094;2022-12-29T00:10:01;96421.38;;;6.16;100.00
27334;BME280;14817;57.104;-2.094;2022-12-29T00:12:28;96421.84;;;6.13;100.00
27334;BME280;14817;57.104;-2.094;2022-12-29T00:15:15;96401.69;;;6.05;100.00
27334;BME280;14817;57.104;-2.094;2022-12-29T00:18:01;96402.84;;;5.98;100.00
27334;BME280;14817;57.104;-2.094;2022-12-29T00:20:28;96387.63;;;5.86;100.00
27334;BME280;14817;57.104;-2.094;2022-12-29T00:23:13;96387.50;;;5.81;100.00
27334;BME280;14817;57.104;-2.094;2022-12-29T00:26:03;96379.84;;;5.73;100.00
27334;BME280;14817;57.104;-2.094;2022-12-29T00:28:49;96389.06;;;5.70;100.00
27334;BME280;14817;57.104;-2.094;2022-12-29T00:31:35;96383.84;;;5.64;100.00
27334;BME280;14817;57.104;-2.094;2022-12-29T00:34:20;96391.44;;;5.60;100.00
27334;BME280;14817;57.104;-2.094;2022-12-29T00:37:05;96408.03;;;5.56;100.00
27334;BME280;14817;57.104;-2.094;2022-12-29T00:39:33;96416.41;;;5.52;100.00
27334;BME280;14817;57.104;-2.094;2022-12-29T00:42:18;96412.44;;;5.43;100.00
27334;BME280;14817;57.104;-2.094;2022-12-29T00:45:03;96413.31;;;5.37;100.00
27334;BME280;14817;57.104;-2.094;2022-12-29T00:47:30;96404.47;;;5.43;100.00
27334;BME280;14817;57.104;-2.094;2022-12-29T00:49:57;96406.72;;;5.46;100.00
27334;BME280;14817;57.104;-2.094;2022-12-29T00:52:24;96405.06;;;5.45;100.00
27334;BME280;14817;57.104;-2.094;2022-12-29T00:54:51;96405.06;;;5.45;100.00
27334;BME280;14817;57.104;-2.094;2022-12-29T00:57:18;96402.41;;;5.45;100.00
27334;BME280;14817;57.104;-2.094;2022-12-29T00:59:44;96403.81;;;5.48;100.00
27334;BME280;14817;57.104;-2.094;2022-12-29T01:02:11;96397.28;;;5.50;100.00
27334;BME280;14817;57.104;-2.094;2022-12-29T01:04:38;96394.84;;;5.49;100.00
27334;BME280;14817;57.104;-2.094;2022-12-29T01:07:05;96399.34;;;5.48;100.00
27334;BME280;14817;57.104;-2.094;2022-12-29T01:09:32;96397.28;;;5.50;100.00
27334;BME280;14817;57.104;-2.094;2022-12-29T01:12:18;96390.34;;;5.49;100.00
27334;BME280;14817;57.104;-2.094;2022-12-29T01:15:06;96384.81;;;5.51;100.00
27334;BME280;14817;57.104;-2.094;2022-12-29T01:17:33;96377.06;;;5.49;100.00
27334;BME280;14817;57.104;-2.094;2022-12-29T01:20:02;96381.06;;;5.40;100.00
27334;BME280;14817;57.104;-2.094;2022-12-29T01:22:29;96371.75;;;5.31;100.00
27334;BME280;14817;57.104;-2.094;2022-12-29T01:24:56;96373.47;;;5.25;100.00
27334;BME280;14817;57.104;-2.094;2022-12-29T01:27:22;96380.06;;;5.16;100.00
27334;BME280;14817;57.104;-2.094;2022-12-29T01:29:49;96386.63;;;5.14;100.00
27334;BME280;14817;57.104;-2.094;2022-12-29T01:32:16;96379.81;;;5.06;100.00
27334;BME280;14817;57.104;-2.094;2022-12-29T01:34:43;96383.09;;;5.01;100.00
27334;BME280;14817;57.104;-2.094;2022-12-29T01:37:10;96390.31;;;4.94;100.00
27334;BME280;14817;57.104;-2.094;2022-12-29T01:39:37;96382.56;;;4.93;100.00
27334;BME280;14817;57.104;-2.094;2022-12-29T01:42:04;96392.22;;;4.87;100.00
27334;BME280;14817;57.104;-2.094;2022-12-29T01:44:47;96402.59;;;4.88;100.00
27334;BME280;14817;57.104;-2.094;2022-12-29T01:50:00;96387.59;;;4.76;100.00
27334;BME280;14817;57.104;-2.094;2022-12-29T01:52:30;96380.84;;;4.80;100.00
27334;BME280;14817;57.104;-2.094;2022-12-29T01:55:02;96381.69;;;4.80;100.00
27334;BME280;14817;57.104;-2.094;2022-12-29T01:57:34;96379.84;;;4.81;100.00
27334;BME280;14817;57.104;-2.094;2022-12-29T02:00:11;96377.56;;;4.84;100.00
27334;BME280;14817;57.104;-2.094;2022-12-29T02:02:43;96389.78;;;4.85;100.00
27334;BME280;14817;57.104;-2.094;2022-12-29T02:05:19;96386.91;;;4.87;100.00
27334;BME280;14817;57.104;-2.094;2022-12-29T02:07:47;96393.63;;;4.89;100.00
27334;BME280;14817;57.104;-2.094;2022-12-29T02:10:18;96395.22;;;4.90;100.00
27334;BME280;14817;57.104;-2.094;2022-12-29T02:12:46;96392.94;;;4.94;100.00
27334;BME280;14817;57.104;-2.094;2022-12-29T02:15:13;96396.84;;;4.91;100.00
27334;BME280;14817;57.104;-2.094;2022-12-29T02:26:21;96403.13;;;4.97;100.00
27334;BME280;14817;57.104;-2.094;2022-12-29T02:32:03;96412.69;;;4.98;100.00
27334;BME280;14817;57.104;-2.094;2022-12-29T02:35:10;96410.03;;;4.98;100.00
27334;BME280;14817;57.104;-2.094;2022-12-29T02:37:42;96419.13;;;5.09;100.00
27334;BME280;14817;57.104;-2.094;2022-12-29T02:40:21;96424.56;;;5.14;100.00
27334;BME280;14817;57.104;-2.094;2022-12-29T02:42:56;96424.44;;;5.09;100.00
27334;BME280;14817;57.104;-2.094;2022-12-29T02:45:34;96427.34;;;5.01;100.00
27334;BME280;14817;57.104;-2.094;2022-12-29T02:48:09;96434.44;;;5.07;100.00
27334;BME280;14817;57.104;-2.094;2022-12-29T02:51:00;96436.34;;;5.00;100.00
27334;BME280;14817;57.104;-2.094;2022-12-29T02:53:30;96445.44;;;5.10;100.00
27334;BME280;14817;57.104;-2.094;2022-12-29T02:56:18;96447.91;;;5.05;100.00
27334;BME280;14817;57.104;-2.094;2022-12-29T02:58:45;96449.09;;;5.09;100.00
27334;BME280;14817;57.104;-2.094;2022-12-29T03:01:53;96443.44;;;5.06;100.00
27334;BME280;14817;57.104;-2.094;2022-12-29T03:07:09;96445.66;;;4.84;100.00
27334;BME280;14817;57.104;-2.094;2022-12-29T03:12:36;96458.34;;;4.75;100.00
27334;BME280;14817;57.104;-2.094;2022-12-29T03:15:30;96463.91;;;4.67;100.00
27334;BME280;14817;57.104;-2.094;2022-12-29T03:21:11;96486.38;;;4.64;100.00
27334;BME280;14817;57.104;-2.094;2022-12-29T03:23:43;96493.97;;;4.54;100.00
27334;BME280;14817;57.104;-2.094;2022-12-29T03:26:16;96495.16;;;4.58;100.00
27334;BME280;14817;57.104;-2.094;2022-12-29T03:28:54;96499.47;;;4.59;100.00
27334;BME280;14817;57.104;-2.094;2022-12-29T03:31:27;96511.91;;;4.52;100.00
27334;BME280;14817;57.104;-2.094;2022-12-29T03:33:56;96516.81;;;4.55;100.00
27334;BME280;14817;57.104;-2.094;2022-12-29T03:36:30;96517.28;;;4.39;100.00
27334;BME280;14817;57.104;-2.094;2022-12-29T03:39:08;96528.88;;;4.44;100.00
27334;BME280;14817;57.104;-2.094;2022-12-29T03:41:40;96525.84;;;4.41;100.00
27334;BME280;14817;57.104;-2.094;2022-12-29T03:44:09;96543.63;;;4.34;100.00
27334;BME280;14817;57.104;-2.094;2022-12-29T03:46:36;96538.97;;;4.29;100.00
27334;BME280;14817;57.104;-2.094;2022-12-29T03:49:03;96539.16;;;4.27;100.00
27334;BME280;14817;57.104;-2.094;2022-12-29T03:51:30;96536.31;;;4.22;100.00
27334;BME280;14817;57.104;-2.094;2022-12-29T03:53:57;96537.78;;;4.18;100.00
27334;BME280;14817;57.104;-2.094;2022-12-29T03:56:24;96548.78;;;4.15;100.00
27334;BME280;14817;57.104;-2.094;2022-12-29T03:58:52;96546.97;;;4.09;100.00
27334;BME280;14817;57.104;-2.094;2022-12-29T04:01:26;96551.25;;;4.10;100.00
27334;BME280;14817;57.104;-2.094;2022-12-29T04:03:54;96559.81;;;4.05;100.00
27334;BME280;14817;57.104;-2.094;2022-12-29T04:06:20;96564.72;;;4.02;100.00
27334;BME280;14817;57.104;-2.094;2022-12-29T04:08:52;96572.84;;;4.00;100.00
27334;BME280;14817;57.104;-2.094;2022-12-29T04:11:20;96578.78;;;3.96;100.00
27334;BME280;14817;57.104;-2.094;2022-12-29T04:13:48;96574.50;;;3.88;100.00
27334;BME280;14817;57.104;-2.094;2022-12-29T04:16:20;96582.44;;;3.88;100.00
27334;BME280;14817;57.104;-2.094;2022-12-29T04:18:47;96591.63;;;3.85;100.00
27334;BME280;14817;57.104;-2.094;2022-12-29T04:21:14;96606.09;;;3.83;100.00
27334;BME280;14817;57.104;-2.094;2022-12-29T04:23:43;96607.09;;;3.82;100.00
27334;BME280;14817;57.104;-2.094;2022-12-29T04:26:11;96618.91;;;3.79;100.00
27334;BME280;14817;57.104;-2.094;2022-12-29T04:28:58;96622.38;;;3.86;100.00
27334;BME280;14817;57.104;-2.094;2022-12-29T04:31:42;96637.44;;;3.79;100.00
27334;BME280;14817;57.104;-2.094;2022-12-29T04:34:09;96635.38;;;3.88;100.00
27334;BME280;14817;57.104;-2.094;2022-12-29T04:36:37;96640.91;;;3.80;100.00
27334;BME280;14817;57.104;-2.094;2022-12-29T04:39:06;96637.44;;;3.79;100.00
27334;BME280;14817;57.104;-2.094;2022-12-29T04:41:34;96644.56;;;3.85;100.00
27334;BME280;14817;57.104;-2.094;2022-12-29T04:44:01;96623.59;;;3.77;100.00
27334;BME280;14817;57.104;-2.094;2022-12-29T04:46:31;96620.56;;;3.74;100.00
27334;BME280;14817;57.104;-2.094;2022-12-29T04:49:01;96624.41;;;3.71;100.00
27334;BME280;14817;57.104;-2.094;2022-12-29T04:51:57;96624.22;;;3.59;100.00
27334;BME280;14817;57.104;-2.094;2022-12-29T04:54:24;96636.84;;;3.57;100.00
27334;BME280;14817;57.104;-2.094;2022-12-29T04:57:03;96635.81;;;3.58;100.00
27334;BME280;14817;57.104;-2.094;2022-12-29T04:59:30;96651.91;;;3.57;100.00
27334;BME280;14817;57.104;-2.094;2022-12-29T05:01:58;96663.31;;;3.51;100.00
27334;BME280;14817;57.104;-2.094;2022-12-29T05:04:26;96670.81;;;3.47;100.00
27334;BME280;14817;57.104;-2.094;2022-12-29T05:06:52;96682.81;;;3.43;100.00
27334;BME280;14817;57.104;-2.094;2022-12-29T05:09:19;96682.44;;;3.39;100.00
27334;BME280;14817;57.104;-2.094;2022-12-29T05:11:46;96701.75;;;3.46;100.00
27334;BME280;14817;57.104;-2.094;2022-12-29T05:14:13;96699.09;;;3.46;100.00
27334;BME280;14817;57.104;-2.094;2022-12-29T05:16:41;96701.75;;;3.46;100.00
27334;BME280;14817;57.104;-2.094;2022-12-29T05:19:08;96713.56;;;3.44;100.00
27334;BME280;14817;57.104;-2.094;2022-12-29T05:21:35;96716.59;;;3.47;100.00
27334;BME280;14817;57.104;-2.094;2022-12-29T05:24:01;96718.41;;;3.40;100.00
27334;BME280;14817;57.104;-2.094;2022-12-29T05:26:28;96724.31;;;3.42;100.00
27334;BME280;14817;57.104;-2.094;2022-12-29T05:29:14;96725.13;;;3.50;100.00
27334;BME280;14817;57.104;-2.094;2022-12-29T05:31:41;96732.06;;;3.44;100.00
27334;BME280;14817;57.104;-2.094;2022-12-29T05:34:10;96740.81;;;3.51;100.00
27334;BME280;14817;57.104;-2.094;2022-12-29T05:36:39;96745.50;;;3.56;100.00
27334;BME280;14817;57.104;-2.094;2022-12-29T05:39:08;96755.47;;;3.47;100.00
27334;BME280;14817;57.104;-2.094;2022-12-29T05:41:36;96776.44;;;3.48;100.00
27334;BME280;14817;57.104;-2.094;2022-12-29T05:44:14;96772.75;;;3.43;100.00
27334;BME280;14817;57.104;-2.094;2022-12-29T05:47:09;96786.81;;;3.50;100.00
27334;BME280;14817;57.104;-2.094;2022-12-29T05:50:00;96791.06;;;3.44;100.00
27334;BME280;14817;57.104;-2.094;2022-12-29T05:52:45;96819.16;;;3.52;100.00
27334;BME280;14817;57.104;-2.094;2022-12-29T05:55:12;96813.25;;;3.50;100.00
27334;BME280;14817;57.104;-2.094;2022-12-29T05:57:41;96829.75;;;3.52;100.00
27334;BME280;14817;57.104;-2.094;2022-12-29T06:00:14;96839.72;;;3.57;100.00
27334;BME280;14817;57.104;-2.094;2022-12-29T06:02:43;96848.28;;;3.59;100.00
27334;BME280;14817;57.104;-2.094;2022-12-29T06:05:10;96856.59;;;3.49;100.00
27334;BME280;14817;57.104;-2.094;2022-12-29T06:07:38;96858.84;;;3.52;100.00
27334;BME280;14817;57.104;-2.094;2022-12-29T06:10:05;96861.72;;;3.57;100.00
27334;BME280;14817;57.104;-2.094;2022-12-29T06:12:41;96865.34;;;3.56;100.00
27334;BME280;14817;57.104;-2.094;2022-12-29T06:15:08;96875.75;;;3.64;100.00
27334;BME280;14817;57.104;-2.094;2022-12-29T06:17:37;96877.38;;;3.52;100.00
27334;BME280;14817;57.104;-2.094;2022-12-29T06:20:05;96892.00;;;3.48;100.00
27334;BME280;14817;57.104;-2.094;2022-12-29T06:22:32;96907.09;;;3.54;100.00
27334;BME280;14817;57.104;-2.094;2022-12-29T06:25:00;96913.72;;;3.43;100.00
27334;BME280;14817;57.104;-2.094;2022-12-29T06:27:32;96926.31;;;3.41;100.00
27334;BME280;14817;57.104;-2.094;2022-12-29T06:29:59;96935.50;;;3.45;100.00
27334;BME280;14817;57.104;-2.094;2022-12-29T06:32:27;96954.69;;;3.54;100.00
27334;BME280;14817;57.104;-2.094;2022-12-29T06:35:01;96958.81;;;3.63;100.00
27334;BME280;14817;57.104;-2.094;2022-12-29T06:37:28;96966.94;;;3.62;100.00
27334;BME280;14817;57.104;-2.094;2022-12-29T06:39:55;96967.75;;;3.62;100.00
27334;BME280;14817;57.104;-2.094;2022-12-29T06:42:27;96976.28;;;3.58;100.00
27334;BME280;14817;57.104;-2.094;2022-12-29T06:45:09;96981.72;;;3.50;100.00
27334;BME280;14817;57.104;-2.094;2022-12-29T06:47:37;96982.16;;;3.53;100.00
27334;BME280;14817;57.104;-2.094;2022-12-29T06:50:04;96983.75;;;3.47;100.00
27334;BME280;14817;57.104;-2.094;2022-12-29T06:52:30;96995.97;;;3.48;100.00
27334;BME280;14817;57.104;-2.094;2022-12-29T06:54:57;96990.06;;;3.46;100.00
27334;BME280;14817;57.104;-2.094;2022-12-29T06:57:25;96992.84;;;3.38;100.00
27334;BME280;14817;57.104;-2.094;2022-12-29T06:59:53;96989.22;;;3.39;100.00
27334;BME280;14817;57.104;-2.094;2022-12-29T07:02:22;96999.16;;;3.37;100.00
27334;BME280;14817;57.104;-2.094;2022-12-29T07:04:52;96980.59;;;3.31;100.00
27334;BME280;14817;57.104;-2.094;2022-12-29T07:07:20;96981.03;;;3.34;100.00
27334;BME280;14817;57.104;-2.094;2022-12-29T07:09:47;96978.63;;;3.39;100.00
27334;BME280;14817;57.104;-2.094;2022-12-29T07:12:14;96980.25;;;3.40;100.00
27334;BME280;14817;57.104;-2.094;2022-12-29T07:14:41;96974.97;;;3.40;100.00
27334;BME280;14817;57.104;-2.094;2022-12-29T07:17:09;96972.94;;;3.42;100.00
27334;BME280;14817;57.104;-2.094;2022-12-29T07:19:36;96964.41;;;3.47;100.00
27334;BME280;14817;57.104;-2.094;2022-12-29T07:22:03;96979.47;;;3.46;100.00
27334;BME280;14817;57.104;-2.094;2022-12-29T07:24:29;96986.16;;;3.42;100.00
27334;BME280;14817;57.104;-2.094;2022-12-29T07:26:56;96992.44;;;3.41;100.00
27334;BME280;14817;57.104;-2.094;2022-12-29T07:29:23;97001.25;;;3.48;100.00
27334;BME280;14817;57.104;-2.094;2022-12-29T07:31:50;97009.00;;;3.50;100.00
27334;BME280;14817;57.104;-2.094;2022-12-29T07:34:17;97008.38;;;3.48;100.00
27334;BME280;14817;57.104;-2.094;2022-12-29T07:36:44;97021.13;;;3.38;100.00
27334;BME280;14817;57.104;-2.094;2022-12-29T07:39:11;97037.63;;;3.40;100.00
27334;BME280;14817;57.104;-2.094;2022-12-29T07:41:38;97053.28;;;3.41;100.00
27334;BME280;14817;57.104;-2.094;2022-12-29T07:44:09;97055.50;;;3.38;100.00
27334;BME280;14817;57.104;-2.094;2022-12-29T07:47:00;97072.16;;;3.32;100.00
27334;BME280;14817;57.104;-2.094;2022-12-29T07:49:27;97076.34;;;3.26;100.00
27334;BME280;14817;57.104;-2.094;2022-12-29T07:51:54;97080.38;;;3.22;100.00
27334;BME280;14817;57.104;-2.094;2022-12-29T07:54:21;97083.19;;;3.14;100.00
27334;BME280;14817;57.104;-2.094;2022-12-29T07:56:49;97089.88;;;3.10;100.00
27334;BME280;14817;57.104;-2.094;2022-12-29T07:59:16;97099.19;;;3.05;100.00
27334;BME280;14817;57.104;-2.094;2022-12-29T08:01:43;97105.47;;;3.04;100.00
27334;BME280;14817;57.104;-2.094;2022-12-29T08:04:10;97103.56;;;2.98;100.00
27334;BME280;14817;57.104;-2.094;2022-12-29T08:06:37;97100.97;;;3.05;100.00
27334;BME280;14817;57.104;-2.094;2022-12-29T08:09:06;97108.84;;;2.98;100.00
27334;BME280;14817;57.104;-2.094;2022-12-29T08:11:44;97111.94;;;3.02;100.00
27334;BME280;14817;57.104;-2.094;2022-12-29T08:14:11;97115.84;;;3.06;100.00
27334;BME280;14817;57.104;-2.094;2022-12-29T08:16:38;97121.78;;;3.08;100.00
27334;BME280;14817;57.104;-2.094;2022-12-29T08:19:04;97130.69;;;3.07;100.00
27334;BME280;14817;57.104;-2.094;2022-12-29T08:21:31;97130.06;;;3.05;100.00
27334;BME280;14817;57.104;-2.094;2022-12-29T08:23:58;97138.38;;;3.02;100.00
27334;BME280;14817;57.104;-2.094;2022-12-29T08:26:25;97145.50;;;3.01;100.00
27334;BME280;14817;57.104;-2.094;2022-12-29T08:28:53;97154.81;;;2.97;100.00
27334;BME280;14817;57.104;-2.094;2022-12-29T08:31:21;97148.50;;;2.98;100.00
27334;BME280;14817;57.104;-2.094;2022-12-29T08:33:48;97146.25;;;2.95;100.00
27334;BME280;14817;57.104;-2.094;2022-12-29T08:36:15;97151.16;;;2.98;100.00
27334;BME280;14817;57.104;-2.094;2022-12-29T08:38:42;97150.56;;;3.03;100.00
27334;BME280;14817;57.104;-2.094;2022-12-29T08:41:09;97157.28;;;2.99;100.00
27334;BME280;14817;57.104;-2.094;2022-12-29T08:43:35;97160.09;;;2.97;100.00
27334;BME280;14817;57.104;-2.094;2022-12-29T08:46:02;97169.56;;;2.92;100.00
27334;BME280;14817;57.104;-2.094;2022-12-29T08:48:29;97170.84;;;2.96;100.00
27334;BME280;14817;57.104;-2.094;2022-12-29T08:50:56;97181.59;;;2.94;100.00
27334;BME280;14817;57.104;-2.094;2022-12-29T08:53:22;97193.19;;;2.93;100.00
27334;BME280;14817;57.104;-2.094;2022-12-29T08:55:56;97188.81;;;2.85;100.00
27334;BME280;14817;57.104;-2.094;2022-12-29T08:58:38;97201.59;;;2.82;100.00
27334;BME280;14817;57.104;-2.094;2022-12-29T09:01:06;97198.97;;;2.82;100.00
27334;BME280;14817;57.104;-2.094;2022-12-29T09:03:33;97204.50;;;2.87;100.00
27334;BME280;14817;57.104;-2.094;2022-12-29T09:06:20;97212.81;;;2.84;100.00
27334;BME280;14817;57.104;-2.094;2022-12-29T09:08:47;97217.25;;;2.83;100.00
27334;BME280;14817;57.104;-2.094;2022-12-29T09:11:15;97214.25;;;2.86;100.00
27334;BME280;14817;57.104;-2.094;2022-12-29T09:13:46;97219.16;;;2.90;100.00
27334;BME280;14817;57.104;-2.094;2022-12-29T09:16:14;97222.91;;;2.95;100.00
27334;BME280;14817;57.104;-2.094;2022-12-29T09:18:42;97222.91;;;2.95;100.00
27334;BME280;14817;57.104;-2.094;2022-12-29T09:21:10;97234.09;;;2.97;100.00
27334;BME280;14817;57.104;-2.094;2022-12-29T09:23:37;97234.56;;;3.01;100.00
27334;BME280;14817;57.104;-2.094;2022-12-29T09:26:05;97237.00;;;3.02;100.00
27334;BME280;14817;57.104;-2.094;2022-12-29T09:28:33;97245.84;;;3.10;100.00
27334;BME280;14817;57.104;-2.094;2022-12-29T09:31:00;97247.47;;;3.11;100.00
27334;BME280;14817;57.104;-2.094;2022-12-29T09:33:27;97247.13;;;3.35;100.00
27334;BME280;14817;57.104;-2.094;2022-12-29T09:35:58;97253.59;;;3.33;100.00
27334;BME280;14817;57.104;-2.094;2022-12-29T09:38:26;97259.28;;;3.30;100.00
27334;BME280;14817;57.104;-2.094;2022-12-29T09:41:26;97262.84;;;3.22;100.00
27334;BME280;14817;57.104;-2.094;2022-12-29T09:44:08;97259.84;;;3.25;100.00
27334;BME280;14817;57.104;-2.094;2022-12-29T09:46:48;97266.19;;;3.31;100.00
27334;BME280;14817;57.104;-2.094;2022-12-29T09:49:23;97267.91;;;3.38;100.00
27334;BME280;14817;57.104;-2.094;2022-12-29T09:51:55;97280.00;;;3.47;100.00
27334;BME280;14817;57.104;-2.094;2022-12-29T09:57:18;97281.53;;;3.57;100.00
27334;BME280;14817;57.104;-2.094;2022-12-29T09:59:46;97290.53;;;3.62;100.00
27334;BME280;14817;57.104;-2.094;2022-12-29T10:02:49;97288.09;;;4.04;100.00
27334;BME280;14817;57.104;-2.094;2022-12-29T10:05:38;97304.53;;;4.49;100.00
27334;BME280;14817;57.104;-2.094;2022-12-29T10:10:57;97305.00;;;4.94;100.00
27334;BME280;14817;57.104;-2.094;2022-12-29T10:13:40;97320.34;;;4.64;100.00
27334;BME280;14817;57.104;-2.094;2022-12-29T10:16:15;97328.16;;;4.44;100.00
27334;BME280;14817;57.104;-2.094;2022-12-29T10:19:06;97333.63;;;4.70;100.00
27334;BME280;14817;57.104;-2.094;2022-12-29T10:21:55;97337.81;;;4.58;100.00
27334;BME280;14817;57.104;-2.094;2022-12-29T10:24:27;97338.16;;;4.48;100.00
27334;BME280;14817;57.104;-2.094;2022-12-29T10:26:56;97342.94;;;4.95;100.00
27334;BME280;14817;57.104;-2.094;2022-12-29T10:29:29;97343.09;;;5.21;100.00
27334;BME280;14817;57.104;-2.094;2022-12-29T10:32:04;97350.69;;;5.31;100.00
27334;BME280;14817;57.104;-2.094;2022-12-29T10:34:42;97359.25;;;5.33;100.00
27334;BME280;14817;57.104;-2.094;2022-12-29T10:39:47;97365.84;;;5.44;100.00
27334;BME280;14817;57.104;-2.094;2022-12-29T10:42:27;97362.66;;;5.20;100.00
27334;BME280;14817;57.104;-2.094;2022-12-29T10:44:55;97365.47;;;5.12;100.00
27334;BME280;14817;57.104;-2.094;2022-12-29T10:47:29;97363.66;;;5.13;100.00
27334;BME280;14817;57.104;-2.094;2022-12-29T10:49:59;97361.19;;;5.11;100.00
27334;BME280;14817;57.104;-2.094;2022-12-29T10:52:28;97361.41;;;5.16;100.00
27334;BME280;14817;57.104;-2.094;2022-12-29T10:55:21;97367.13;;;5.13;100.00
27334;BME280;14817;57.104;-2.094;2022-12-29T10:57:49;97370.00;;;5.18;100.00
27334;BME280;14817;57.104;-2.094;2022-12-29T11:00:19;97369.09;;;4.98;100.00
27334;BME280;14817;57.104;-2.094;2022-12-29T11:08:25;97378.75;;;5.12;100.00
27334;BME280;14817;57.104;-2.094;2022-12-29T11:11:12;97376.63;;;5.01;100.00
27334;BME280;14817;57.104;-2.094;2022-12-29T11:13:51;97377.44;;;5.01;100.00
27334;BME280;14817;57.104;-2.094;2022-12-29T11:16:32;97387.03;;;4.96;100.00
27334;BME280;14817;57.104;-2.094;2022-12-29T11:21:32;97390.78;;;4.80;100.00
27334;BME280;14817;57.104;-2.094;2022-12-29T11:24:05;97388.88;;;4.74;100.00
27334;BME280;14817;57.104;-2.094;2022-12-29T11:26:32;97385.19;;;4.68;100.00
27334;BME280;14817;57.104;-2.094;2022-12-29T11:31:56;97397.00;;;4.65;100.00
27334;BME280;14817;57.104;-2.094;2022-12-29T11:36:59;97398.13;;;4.56;100.00
27334;BME280;14817;57.104;-2.094;2022-12-29T11:39:41;97398.13;;;4.56;100.00
27334;BME280;14817;57.104;-2.094;2022-12-29T11:42:15;97395.69;;;4.55;100.00
27334;BME280;14817;57.104;-2.094;2022-12-29T11:44:46;97388.69;;;4.47;100.00
27334;BME280;14817;57.104;-2.094;2022-12-29T11:47:26;97394.00;;;4.47;100.00
27334;BME280;14817;57.104;-2.094;2022-12-29T11:49:59;97402.97;;;4.46;100.00
27334;BME280;14817;57.104;-2.094;2022-12-29T11:52:30;97395.38;;;4.43;100.00
27334;BME280;14817;57.104;-2.094;2022-12-29T11:55:00;97395.97;;;4.38;100.00
27334;BME280;14817;57.104;-2.094;2022-12-29T11:57:28;97397.41;;;4.41;100.00
27334;BME280;14817;57.104;-2.094;2022-12-29T11:59:57;97407.38;;;4.39;100.00
27334;BME280;14817;57.104;-2.094;2022-12-29T12:02:38;97405.00;;;4.44;100.00
27334;BME280;14817;57.104;-2.094;2022-12-29T12:10:44;97416.75;;;4.41;100.00
27334;BME280;14817;57.104;-2.094;2022-12-29T12:13:25;97416.75;;;4.41;100.00
27334;BME280;14817;57.104;-2.094;2022-12-29T12:16:13;97411.91;;;4.45;100.00
27334;BME280;14817;57.104;-2.094;2022-12-29T12:21:20;97423.59;;;4.50;100.00
27334;BME280;14817;57.104;-2.094;2022-12-29T12:27:01;97414.03;;;4.56;100.00
27334;BME280;14817;57.104;-2.094;2022-12-29T12:29:37;97421.34;;;4.54;100.00
27334;BME280;14817;57.104;-2.094;2022-12-29T12:34:50;97425.13;;;4.66;100.00
27334;BME280;14817;57.104;-2.094;2022-12-29T12:43:34;97435.25;;;4.56;100.00
27334;BME280;14817;57.104;-2.094;2022-12-29T12:53:56;97425.91;;;4.60;100.00
27334;BME280;14817;57.104;-2.094;2022-12-29T12:57:14;97432.81;;;4.55;100.00
27334;BME280;14817;57.104;-2.094;2022-12-29T12:59:47;97432.88;;;4.40;100.00
27334;BME280;14817;57.104;-2.094;2022-12-29T13:07:58;97431.59;;;4.36;100.00
27334;BME280;14817;57.104;-2.094;2022-12-29T13:10:40;97431.72;;;4.27;100.00
27334;BME280;14817;57.104;-2.094;2022-12-29T13:13:25;97425.97;;;4.24;100.00
27334;BME280;14817;57.104;-2.094;2022-12-29T13:16:06;97434.03;;;4.16;100.00
27334;BME280;14817;57.104;-2.094;2022-12-29T13:18:55;97429.59;;;4.16;100.00
27334;BME280;14817;57.104;-2.094;2022-12-29T13:30:22;97425.38;;;4.07;100.00
27334;BME280;14817;57.104;-2.094;2022-12-29T13:32:53;97425.78;;;4.04;100.00
27334;BME280;14817;57.104;-2.094;2022-12-29T13:40:38;97423.19;;;4.11;100.00
27334;BME280;14817;57.104;-2.094;2022-12-29T13:43:05;97430.44;;;4.02;100.00
27334;BME280;14817;57.104;-2.094;2022-12-29T13:45:34;97436.25;;;4.12;100.00
27334;BME280;14817;57.104;-2.094;2022-12-29T13:48:21;97449.03;;;4.08;100.00
27334;BME280;14817;57.104;-2.094;2022-12-29T13:50:55;97447.84;;;4.11;100.00
27334;BME280;14817;57.104;-2.094;2022-12-29T13:58:57;97457.69;;;4.17;100.00
27334;BME280;14817;57.104;-2.094;2022-12-29T14:01:40;97457.88;;;4.16;100.00
27334;BME280;14817;57.104;-2.094;2022-12-29T14:04:14;97448.75;;;4.18;100.00
27334;BME280;14817;57.104;-2.094;2022-12-29T14:06:41;97454.66;;;4.20;100.00
27334;BME280;14817;57.104;-2.094;2022-12-29T14:12:41;97460.22;;;4.25;100.00
27334;BME280;14817;57.104;-2.094;2022-12-29T14:17:44;97459.59;;;4.23;100.00
27334;BME280;14817;57.104;-2.094;2022-12-29T14:20:26;97447.44;;;4.29;100.00
27334;BME280;14817;57.104;-2.094;2022-12-29T14:23:35;97459.84;;;4.28;100.00
27334;BME280;14817;57.104;-2.094;2022-12-29T14:36:38;97459.53;;;4.17;100.00
27334;BME280;14817;57.104;-2.094;2022-12-29T14:42:10;97464.13;;;4.08;100.00
27334;BME280;14817;57.104;-2.094;2022-12-29T14:45:02;97466.38;;;4.11;100.00
27334;BME280;14817;57.104;-2.094;2022-12-29T14:47:39;97471.03;;;4.09;100.00
27334;BME280;14817;57.104;-2.094;2022-12-29T14:52:53;97482.00;;;4.06;100.00
27334;BME280;14817;57.104;-2.094;2022-12-29T14:58:02;97485.75;;;3.97;100.00
27334;BME280;14817;57.104;-2.094;2022-12-29T15:00:39;97492.16;;;3.87;100.00
27334;BME280;14817;57.104;-2.094;2022-12-29T15:03:23;97488.44;;;3.82;100.00
27334;BME280;14817;57.104;-2.094;2022-12-29T15:05:53;97499.22;;;3.65;100.00
27334;BME280;14817;57.104;-2.094;2022-12-29T15:08:25;97496.13;;;3.62;100.00
27334;BME280;14817;57.104;-2.094;2022-12-29T15:10:58;97496.03;;;3.55;100.00
27334;BME280;14817;57.104;-2.094;2022-12-29T15:13:35;97494.50;;;3.61;100.00
27334;BME280;14817;57.104;-2.094;2022-12-29T15:16:02;97501.06;;;3.65;100.00
27334;BME280;14817;57.104;-2.094;2022-12-29T15:18:32;97508.34;;;3.63;100.00
27334;BME280;14817;57.104;-2.094;2022-12-29T15:21:04;97510.06;;;3.56;100.00